createdAt,value
2022-10-31T00:00:42.138Z,26.58
2022-10-31T00:03:45.210Z,23.43
2022-10-31T00:06:47.797Z,24.40
2022-10-31T00:09:50.563Z,23.58
2022-10-31T00:12:53.038Z,23.35
2022-10-31T00:15:55.780Z,23.80
2022-10-31T00:19:00.942Z,29.17
2022-10-31T00:22:03.660Z,25.50
2022-10-31T00:25:06.288Z,24.02
2022-10-31T00:28:10.805Z,23.98
2022-10-31T00:31:14.463Z,26.25
2022-10-31T00:34:17.345Z,22.50
2022-10-31T00:37:19.877Z,27.00
2022-10-31T00:40:22.800Z,23.80
2022-10-31T00:43:25.340Z,26.50
2022-10-31T00:46:28.231Z,31.87
2022-10-31T00:49:30.766Z,31.17
2022-10-31T00:52:33.728Z,28.27
2022-10-31T00:55:36.187Z,27.62
2022-10-31T00:58:39.069Z,24.75
2022-10-31T01:01:42.776Z,26.98
2022-10-31T01:04:45.743Z,26.73
2022-10-31T01:07:49.374Z,24.33
2022-10-31T01:11:16.255Z,23.48
2022-10-31T01:14:18.719Z,26.50
2022-10-31T01:17:21.486Z,25.40
2022-10-31T01:20:23.977Z,23.13
2022-10-31T01:23:26.715Z,22.70
2022-10-31T01:26:31.802Z,22.98
2022-10-31T01:29:34.575Z,20.88
2022-10-31T01:32:37.060Z,22.75
2022-10-31T01:35:39.779Z,23.13
2022-10-31T01:38:42.609Z,24.15
2022-10-31T01:41:47.926Z,21.55
2022-10-31T01:44:56.688Z,20.92
2022-10-31T01:47:59.874Z,22.30
2022-10-31T01:51:05.893Z,20.73
2022-10-31T01:54:12.404Z,21.35
2022-10-31T01:57:15.834Z,20.55
2022-10-31T02:00:20.303Z,20.55
2022-10-31T02:03:23.678Z,21.37
2022-10-31T02:06:34.835Z,19.87
2022-10-31T02:09:38.564Z,20.65
2022-10-31T02:12:42.003Z,20.67
2022-10-31T02:15:48.636Z,19.50
2022-10-31T02:18:51.151Z,22.02
2022-10-31T02:22:05.289Z,22.17
2022-10-31T02:25:23.898Z,23.33
2022-10-31T02:29:07.584Z,24.55
2022-10-31T02:32:19.245Z,25.00
2022-10-31T02:35:27.852Z,24.33
2022-10-31T02:38:52.235Z,19.10
2022-10-31T02:42:14.485Z,21.77
2022-10-31T02:45:33.132Z,31.87
2022-10-31T02:48:38.979Z,21.55
2022-10-31T02:51:41.529Z,26.92
2022-10-31T02:54:47.524Z,22.63
2022-10-31T02:57:50.975Z,23.05
2022-10-31T03:01:09.156Z,25.05
2022-10-31T03:04:26.489Z,31.90
2022-10-31T03:07:53.641Z,24.95
2022-10-31T03:11:00.325Z,19.83
2022-10-31T03:14:21.087Z,19.48
2022-10-31T03:17:34.084Z,23.27
2022-10-31T03:21:22.514Z,21.67
2022-10-31T03:24:28.710Z,18.83
2022-10-31T03:27:34.722Z,22.33
2022-10-31T03:30:40.164Z,17.95
2022-10-31T03:33:43.851Z,23.40
2022-10-31T03:36:47.671Z,18.92
2022-10-31T03:39:50.864Z,23.08
2022-10-31T03:43:00.967Z,20.43
2022-10-31T03:46:04.602Z,18.50
2022-10-31T03:49:07.322Z,15.18
2022-10-31T03:52:21.838Z,15.13
2022-10-31T03:55:36.026Z,14.32
2022-10-31T03:58:43.918Z,16.17
2022-10-31T04:01:50.043Z,13.98
2022-10-31T04:04:53.257Z,16.55
2022-10-31T04:07:57.316Z,14.23
2022-10-31T04:11:01.370Z,15.68
2022-10-31T04:14:05.176Z,14.80
2022-10-31T04:17:14.463Z,14.87
2022-10-31T04:20:18.248Z,14.85
2022-10-31T04:23:26.503Z,17.48
2022-10-31T04:26:29.291Z,17.02
2022-10-31T04:29:32.172Z,16.63
2022-10-31T04:32:34.757Z,14.35
2022-10-31T04:35:37.998Z,16.08
2022-10-31T04:38:41.198Z,15.93
2022-10-31T04:41:45.361Z,15.30
2022-10-31T04:44:48.148Z,16.13
2022-10-31T04:47:51.143Z,15.57
2022-10-31T04:50:53.645Z,18.77
2022-10-31T04:53:56.864Z,17.40
2022-10-31T04:57:01.784Z,14.85
2022-10-31T05:00:05.020Z,13.30
2022-10-31T05:03:09.500Z,14.63
2022-10-31T05:06:12.255Z,15.45
2022-10-31T05:09:16.798Z,14.85
2022-10-31T05:12:19.657Z,13.57
2022-10-31T05:15:26.662Z,13.73
2022-10-31T05:18:31.748Z,13.10
2022-10-31T05:21:36.932Z,12.70
2022-10-31T05:24:39.922Z,12.98
2022-10-31T05:27:48.542Z,11.50
2022-10-31T05:30:51.468Z,12.63
2022-10-31T05:33:53.920Z,11.98
2022-10-31T05:36:58.826Z,11.35
2022-10-31T05:40:06.976Z,13.02
2022-10-31T05:43:11.620Z,11.93
2022-10-31T05:46:14.912Z,13.17
2022-10-31T05:49:20.155Z,13.43
2022-10-31T05:52:24.912Z,13.40
2022-10-31T05:55:29.989Z,13.13
2022-10-31T05:58:33.534Z,12.77
2022-10-31T06:01:36.430Z,11.40
2022-10-31T06:04:40.161Z,12.85
2022-10-31T06:07:42.666Z,12.48
2022-10-31T06:10:45.607Z,12.85
2022-10-31T06:13:50.984Z,12.00
2022-10-31T06:16:55.929Z,16.90
2022-10-31T06:19:59.854Z,11.80
2022-10-31T06:23:03.962Z,12.93
2022-10-31T06:26:06.997Z,11.68
2022-10-31T06:29:09.746Z,10.52
2022-10-31T06:32:13.725Z,12.03
2022-10-31T06:35:17.096Z,11.77
2022-10-31T06:38:19.629Z,12.10
2022-10-31T06:41:22.456Z,9.98
2022-10-31T06:44:25.185Z,9.45
2022-10-31T06:47:30.792Z,9.50
2022-10-31T06:50:33.694Z,9.35
2022-10-31T06:53:36.554Z,10.93
2022-10-31T06:56:39.303Z,11.25
2022-10-31T06:59:42.218Z,11.60
2022-10-31T07:03:03.886Z,7.63
2022-10-31T07:06:06.974Z,9.68
2022-10-31T07:09:09.789Z,8.70
2022-10-31T07:12:12.585Z,8.10
2022-10-31T07:15:15.485Z,9.30
2022-10-31T07:18:19.181Z,8.93
2022-10-31T07:21:23.516Z,7.75
2022-10-31T07:24:26.610Z,9.60
2022-10-31T07:27:42.965Z,9.20
2022-10-31T07:30:52.172Z,8.65
2022-10-31T07:33:55.741Z,10.17
2022-10-31T07:37:01.020Z,8.00
2022-10-31T07:40:07.192Z,7.65
2022-10-31T07:43:14.441Z,8.63
2022-10-31T07:46:17.880Z,8.75
2022-10-31T07:49:22.786Z,7.60
2022-10-31T07:52:29.734Z,7.32
2022-10-31T07:55:35.147Z,10.35
2022-10-31T07:58:38.717Z,8.45
2022-10-31T08:01:41.660Z,9.18
2022-10-31T08:04:47.192Z,6.57
2022-10-31T08:07:55.714Z,6.78
2022-10-31T08:10:59.202Z,6.15
2022-10-31T08:14:02.030Z,9.13
2022-10-31T08:17:04.899Z,7.00
2022-10-31T08:20:09.298Z,6.43
2022-10-31T08:23:13.700Z,5.95
2022-10-31T08:26:17.274Z,5.10
2022-10-31T08:29:20.319Z,4.87
2022-10-31T08:32:22.866Z,5.70
2022-10-31T08:35:28.153Z,5.23
2022-10-31T08:38:32.540Z,4.62
2022-10-31T08:41:36.265Z,5.57
2022-10-31T08:44:39.612Z,6.20
2022-10-31T08:47:42.588Z,6.53
2022-10-31T08:50:46.064Z,5.03
2022-10-31T08:53:49.060Z,7.20
2022-10-31T08:56:56.975Z,5.90
2022-10-31T09:00:00.248Z,5.72
2022-10-31T09:03:05.586Z,5.28
2022-10-31T09:06:10.057Z,5.70
2022-10-31T09:09:13.320Z,5.43
2022-10-31T09:12:16.500Z,8.55
2022-10-31T09:15:22.484Z,5.37
2022-10-31T09:18:25.946Z,4.97
2022-10-31T09:21:30.344Z,8.60
2022-10-31T09:24:34.759Z,5.40
2022-10-31T09:27:38.147Z,7.03
2022-10-31T09:30:42.909Z,14.70
2022-10-31T09:33:46.027Z,7.37
2022-10-31T09:36:49.703Z,6.17
2022-10-31T09:39:53.523Z,5.87
2022-10-31T09:43:08.616Z,4.75
2022-10-31T09:47:15.996Z,5.53
2022-10-31T09:50:23.348Z,6.57
2022-10-31T09:53:38.085Z,6.03
2022-10-31T09:56:41.072Z,4.82
2022-10-31T09:59:45.481Z,5.65
2022-10-31T10:02:56.164Z,6.55
2022-10-31T10:06:20.842Z,6.70
2022-10-31T10:09:27.769Z,5.33
2022-10-31T10:12:49.325Z,7.10
2022-10-31T10:16:04.499Z,8.30
2022-10-31T10:19:35.271Z,5.60
2022-10-31T10:22:46.474Z,12.32
2022-10-31T10:25:55.910Z,10.60
2022-10-31T10:29:01.967Z,7.07
2022-10-31T10:32:11.967Z,4.85
2022-10-31T10:35:24.665Z,5.47
2022-10-31T10:38:47.900Z,9.00
2022-10-31T10:42:10.014Z,6.77
2022-10-31T10:45:37.025Z,6.40
2022-10-31T10:49:01.248Z,6.22
2022-10-31T10:52:39.340Z,7.90
2022-10-31T10:55:52.363Z,6.65
2022-10-31T10:58:56.247Z,6.50
2022-10-31T11:01:59.396Z,6.80
2022-10-31T11:05:02.733Z,7.05
2022-10-31T11:08:06.172Z,9.30
2022-10-31T11:11:26.556Z,6.50
2022-10-31T11:14:29.283Z,4.53
2022-10-31T11:17:40.544Z,6.10
2022-10-31T11:20:52.996Z,8.63
2022-10-31T11:24:05.526Z,6.25
2022-10-31T11:27:27.014Z,8.30
2022-10-31T11:30:30.673Z,5.57
2022-10-31T11:33:34.348Z,6.00
2022-10-31T11:36:39.406Z,8.70
2022-10-31T11:39:43.539Z,6.80
2022-10-31T11:42:47.248Z,10.07
2022-10-31T11:45:49.913Z,8.23
2022-10-31T11:48:55.250Z,9.23
2022-10-31T11:51:59.355Z,6.55
2022-10-31T11:55:15.447Z,10.45
2022-10-31T11:58:23.382Z,12.35
2022-10-31T12:01:28.553Z,9.17
2022-10-31T12:04:40.222Z,10.45
2022-10-31T12:07:43.351Z,8.55
2022-10-31T12:11:24.058Z,9.88
2022-10-31T12:14:57.082Z,8.45
2022-10-31T12:18:05.987Z,7.27
2022-10-31T12:21:24.634Z,7.03
2022-10-31T12:24:57.171Z,7.57
2022-10-31T12:28:41.350Z,7.82
2022-10-31T12:32:03.475Z,8.32
2022-10-31T12:35:18.770Z,7.83
2022-10-31T12:38:40.314Z,7.95
2022-10-31T12:41:54.299Z,7.97
2022-10-31T12:45:23.593Z,7.05
2022-10-31T12:48:46.373Z,9.45
2022-10-31T12:51:56.937Z,9.80
2022-10-31T12:55:32.994Z,11.65
2022-10-31T12:58:45.024Z,9.85
2022-10-31T13:01:52.274Z,9.63
2022-10-31T13:05:27.038Z,9.30
2022-10-31T13:08:46.662Z,7.43
2022-10-31T13:12:11.984Z,8.68
2022-10-31T13:15:27.386Z,7.05
2022-10-31T13:18:36.470Z,8.93
2022-10-31T13:21:44.228Z,8.88
2022-10-31T13:24:59.193Z,9.20
2022-10-31T13:28:13.885Z,8.85
2022-10-31T13:31:16.725Z,8.50
2022-10-31T13:34:41.510Z,8.32
2022-10-31T13:38:11.332Z,9.77
2022-10-31T13:41:32.099Z,11.13
2022-10-31T13:44:39.155Z,9.95
2022-10-31T13:47:42.461Z,8.73
2022-10-31T13:50:57.768Z,11.23
2022-10-31T13:54:03.134Z,10.40
2022-10-31T13:57:21.271Z,8.53
2022-10-31T14:00:27.739Z,13.65
2022-10-31T14:04:02.031Z,10.95
2022-10-31T14:07:14.375Z,12.00
2022-10-31T14:10:29.264Z,11.52
2022-10-31T14:13:43.754Z,12.33
2022-10-31T14:16:49.028Z,10.88
2022-10-31T14:20:12.721Z,16.25
2022-10-31T14:23:41.064Z,13.23
2022-10-31T14:26:58.330Z,15.68
2022-10-31T14:30:14.472Z,12.57
2022-10-31T14:33:20.792Z,13.27
2022-10-31T14:36:36.041Z,12.90
2022-10-31T14:40:10.249Z,12.13
2022-10-31T14:43:15.551Z,12.30
2022-10-31T14:46:20.111Z,11.87
2022-10-31T14:49:30.243Z,11.63
2022-10-31T14:52:33.373Z,12.02
2022-10-31T14:55:42.689Z,13.45
2022-10-31T14:58:46.841Z,15.25
2022-10-31T15:02:01.503Z,17.60
2022-10-31T15:05:09.548Z,15.85
2022-10-31T15:08:39.563Z,16.08
2022-10-31T15:11:42.061Z,13.43
2022-10-31T15:14:44.826Z,13.82
2022-10-31T15:17:56.871Z,13.93
2022-10-31T15:20:59.718Z,14.38
2022-10-31T15:24:03.180Z,15.70
2022-10-31T15:27:06.274Z,14.10
2022-10-31T15:30:21.092Z,15.32
2022-10-31T15:33:25.551Z,15.23
2022-10-31T15:36:29.855Z,14.85
2022-10-31T15:39:34.498Z,19.77
2022-10-31T15:42:41.647Z,15.57
2022-10-31T15:45:44.399Z,11.77
2022-10-31T15:48:48.209Z,16.83
2022-10-31T15:51:54.454Z,19.35
2022-10-31T15:55:00.857Z,15.60
2022-10-31T15:58:11.789Z,14.05
2022-10-31T16:01:21.948Z,15.82
2022-10-31T16:04:24.932Z,14.93
2022-10-31T16:07:28.309Z,16.55
2022-10-31T16:10:35.184Z,17.33
2022-10-31T16:13:40.841Z,16.67
2022-10-31T16:16:47.455Z,16.65
2022-10-31T16:19:54.634Z,21.33
2022-10-31T16:22:58.449Z,17.52
2022-10-31T16:26:01.220Z,19.55
2022-10-31T16:29:05.716Z,14.23
2022-10-31T16:32:30.414Z,20.52
2022-10-31T16:35:35.700Z,22.53
2022-10-31T16:38:38.203Z,15.00
2022-10-31T16:41:42.888Z,18.12
2022-10-31T16:44:46.071Z,18.37
2022-10-31T16:47:49.574Z,21.67
2022-10-31T16:50:53.985Z,18.70
2022-10-31T16:53:59.132Z,21.40
2022-10-31T16:57:03.157Z,21.12
2022-10-31T17:00:06.572Z,16.77
2022-10-31T17:03:09.849Z,19.70
2022-10-31T17:06:15.980Z,20.33
2022-10-31T17:09:18.447Z,19.02
2022-10-31T17:12:24.085Z,21.67
2022-10-31T17:15:28.378Z,18.30
2022-10-31T17:18:31.127Z,21.80
2022-10-31T17:21:33.796Z,26.33
2022-10-31T17:24:36.506Z,20.17
2022-10-31T17:27:41.178Z,22.45
2022-10-31T17:30:45.062Z,23.58
2022-10-31T17:33:47.733Z,24.95
2022-10-31T17:36:51.871Z,20.87
2022-10-31T17:39:54.458Z,19.50
2022-10-31T17:42:58.067Z,21.55
2022-10-31T17:46:01.413Z,21.75
2022-10-31T17:49:09.137Z,20.08
2022-10-31T17:52:11.680Z,22.53
2022-10-31T17:55:15.381Z,23.33
2022-10-31T17:58:17.953Z,21.83
2022-10-31T18:01:20.951Z,24.58
2022-10-31T18:04:23.912Z,20.90
2022-10-31T18:07:26.561Z,22.67
2022-10-31T18:10:29.577Z,24.77
2022-10-31T18:13:32.048Z,21.75
2022-10-31T18:19:42.256Z,23.60
2022-10-31T18:22:45.051Z,23.60
2022-10-31T18:25:47.554Z,24.60
2022-10-31T18:28:50.890Z,24.75
2022-10-31T18:31:54.438Z,22.45
2022-10-31T18:34:57.225Z,21.30
2022-10-31T18:38:03.052Z,22.20
2022-10-31T18:41:07.106Z,19.73
2022-10-31T18:44:09.821Z,18.60
2022-10-31T18:47:12.969Z,20.05
2022-10-31T18:50:16.078Z,19.02
2022-10-31T18:53:20.259Z,20.10
2022-10-31T18:56:23.205Z,20.30
2022-10-31T18:59:26.092Z,21.30
2022-10-31T19:02:28.567Z,23.95
2022-10-31T19:05:31.395Z,22.60
2022-10-31T19:08:34.461Z,19.07
2022-10-31T19:11:37.903Z,20.15
2022-10-31T19:14:41.030Z,21.33
2022-10-31T19:17:43.817Z,19.87
2022-10-31T19:20:46.287Z,22.05
2022-10-31T19:23:52.302Z,20.23
2022-10-31T19:26:54.803Z,22.10
2022-10-31T19:29:57.987Z,22.90
2022-10-31T19:33:00.902Z,23.17
2022-10-31T19:36:10.814Z,24.40
2022-10-31T19:39:13.658Z,18.67
2022-10-31T19:42:16.588Z,17.52
2022-10-31T19:45:19.656Z,16.80
2022-10-31T19:48:24.486Z,12.75
2022-10-31T19:51:27.494Z,13.55
2022-10-31T19:54:31.876Z,14.63
2022-10-31T19:57:56.538Z,15.18
2022-10-31T20:04:07.280Z,15.27
2022-10-31T20:07:09.772Z,13.02
2022-10-31T20:10:12.636Z,15.27
2022-10-31T20:13:15.337Z,10.18
2022-10-31T20:16:18.191Z,21.05
2022-10-31T20:19:20.696Z,13.38
2022-10-31T20:22:23.713Z,15.93
2022-10-31T20:25:26.452Z,13.60
2022-10-31T20:28:33.484Z,14.20
2022-10-31T20:31:36.915Z,12.77
2022-10-31T20:34:39.872Z,12.95
2022-10-31T20:37:42.403Z,12.80
2022-10-31T20:40:45.570Z,12.37
2022-10-31T20:43:48.056Z,14.43
2022-10-31T20:46:50.802Z,13.27
2022-10-31T20:49:53.270Z,16.70
2022-10-31T20:52:56.379Z,15.40
2022-10-31T20:56:08.000Z,13.73
2022-10-31T20:59:12.440Z,15.65
2022-10-31T21:02:15.296Z,16.92
2022-10-31T21:05:18.410Z,17.92
2022-10-31T21:08:21.274Z,17.27
2022-10-31T21:11:26.004Z,14.83
2022-10-31T21:14:28.457Z,17.17
2022-10-31T21:17:31.228Z,11.82
2022-10-31T21:20:33.875Z,13.60
2022-10-31T21:23:36.770Z,13.52
2022-10-31T21:26:42.355Z,15.57
2022-10-31T21:29:45.270Z,18.02
2022-10-31T21:32:47.785Z,15.27
2022-10-31T21:35:51.733Z,18.77
2022-10-31T21:38:55.711Z,16.52
2022-10-31T21:41:58.424Z,14.20
2022-10-31T21:45:00.917Z,17.58
2022-10-31T21:48:03.794Z,13.27
2022-10-31T21:51:06.519Z,16.17
2022-10-31T21:54:27.412Z,19.10
2022-10-31T21:57:29.944Z,15.50
2022-10-31T22:00:32.663Z,19.25
2022-10-31T22:03:36.651Z,19.10
2022-10-31T22:06:39.343Z,17.60
2022-10-31T22:09:47.265Z,18.73
2022-10-31T22:12:49.690Z,18.40
2022-10-31T22:15:52.493Z,14.60
2022-10-31T22:18:57.967Z,19.80
2022-10-31T22:22:01.065Z,19.90
2022-10-31T22:25:03.591Z,11.43
2022-10-31T22:28:08.042Z,18.33
2022-10-31T22:34:20.549Z,20.52
2022-10-31T22:37:23.031Z,19.48
2022-10-31T22:40:25.781Z,18.77
2022-10-31T22:43:28.353Z,20.00
2022-10-31T22:46:32.926Z,17.48
2022-10-31T22:49:35.447Z,20.23
2022-10-31T22:52:38.248Z,22.37
2022-10-31T22:55:40.694Z,19.52
2022-10-31T22:58:43.731Z,16.83
2022-10-31T23:01:46.672Z,18.62
2022-10-31T23:04:49.599Z,19.42
2022-10-31T23:07:52.112Z,21.30
2022-10-31T23:10:55.007Z,17.58
2022-10-31T23:14:10.064Z,17.40
2022-10-31T23:17:17.734Z,18.20
2022-10-31T23:20:20.282Z,13.20
2022-10-31T23:23:23.010Z,21.95
2022-10-31T23:26:44.539Z,19.70
2022-10-31T23:29:57.539Z,16.70
2022-10-31T23:33:00.441Z,20.33
2022-10-31T23:36:04.035Z,17.08
2022-10-31T23:39:06.461Z,12.35
2022-10-31T23:42:09.701Z,18.87
2022-10-31T23:45:12.192Z,16.17
2022-10-31T23:48:14.975Z,15.85
2022-10-31T23:51:17.596Z,17.67
2022-10-31T23:54:20.339Z,18.20
2022-10-31T23:57:22.805Z,17.55
